Time;durP1;ratioP1;P1;durP2;ratioP2;P2;SDS_P1;SDS_P2;PMS_P1;PMS_P2;Temp;Humidity;BMP_temperature;BMP_pressure;BME280_temperature;BME280_humidity;BME280_pressure;Samples;Min_cycle;Max_cycle;Signal;HPM_P1;HPM_P2
2023/05/23 00:01:45;;;;;;;10.98;5.13;;;;;;;;;;5047310;28;20032;-78
2023/05/23 00:04:17;;;;;;;11.03;5.20;;;;;;;;;;5042056;28;20037;-78
2023/05/23 00:06:49;;;;;;;7.32;4.93;;;;;;;;;;5047139;28;20029;-78
2023/05/23 00:09:15;;;;;;;8.13;4.15;;;;;;;;;;5047259;28;20648;-78
2023/05/23 00:11:44;;;;;;;10.48;5.72;;;;;;;;;;5048688;28;20103;-78
2023/05/23 00:14:14;;;;;;;8.77;5.28;;;16.90;99.90;;;;;;5051037;28;20086;-78
2023/05/23 00:16:43;;;;;;;11.95;5.78;;;16.80;99.90;;;;;;5044905;28;20022;-78
2023/05/23 00:19:15;;;;;;;8.10;6.03;;;16.80;99.90;;;;;;5039522;28;20032;-77
2023/05/23 00:21:47;;;;;;;10.55;5.32;;;;;;;;;;5031024;28;20041;-78
2023/05/23 00:24:13;;;;;;;9.90;5.35;;;;;;;;;;5032383;28;20036;-78
2023/05/23 00:26:39;;;;;;;9.25;5.00;;;;;;;;;;5044180;28;20524;-77
2023/05/23 00:29:05;;;;;;;12.20;5.28;;;;;;;;;;5032239;28;20032;-78
2023/05/23 00:31:31;;;;;;;13.43;4.82;;;16.80;99.90;;;;;;5041441;28;20077;-78
2023/05/23 00:33:57;;;;;;;9.00;4.57;;;;;;;;;;5029934;28;20438;-78
2023/05/23 00:36:23;;;;;;;13.35;5.35;;;;;;;;;;5048880;28;20039;-78
2023/05/23 00:38:49;;;;;;;10.65;5.28;;;;;;;;;;5026508;28;20486;-77
2023/05/23 00:41:17;;;;;;;7.30;4.82;;;;;;;;;;5049972;28;20037;-78
2023/05/23 00:43:43;;;;;;;7.78;5.30;;;;;;;;;;5021260;28;20028;-78
2023/05/23 00:46:10;;;;;;;9.60;4.97;;;16.70;99.90;;;;;;5036378;28;20394;-78
2023/05/23 00:48:37;;;;;;;10.23;5.13;;;;;;;;;;5038597;28;20032;-78
2023/05/23 00:51:03;;;;;;;7.10;4.45;;;16.50;99.90;;;;;;5036143;28;20021;-78
2023/05/23 00:53:29;;;;;;;8.48;4.65;;;;;;;;;;5031132;28;20515;-78
2023/05/23 00:55:55;;;;;;;8.88;5.35;;;;;;;;;;5038735;28;20033;-78
2023/05/23 00:58:21;;;;;;;9.93;5.50;;;;;;;;;;5050005;28;20033;-77
2023/05/23 01:00:49;;;;;;;11.65;5.30;;;;;;;;;;5050395;28;20025;-78
2023/05/23 01:03:16;;;;;;;9.88;5.03;;;;;;;;;;5043363;28;20048;-78
2023/05/23 01:05:42;;;;;;;9.10;4.78;;;;;;;;;;5038540;28;20555;-78
2023/05/23 01:08:08;;;;;;;13.15;6.80;;;;;;;;;;5050153;28;20040;-78
2023/05/23 01:10:34;;;;;;;9.98;6.68;;;;;;;;;;5050131;28;20036;-77
2023/05/23 01:13:11;;;;;;;7.90;4.43;;;16.30;99.90;;;;;;5049068;28;20086;-78
2023/05/23 01:15:44;;;;;;;8.93;5.53;;;16.30;99.90;;;;;;5050238;28;20083;-77
2023/05/23 01:18:16;;;;;;;9.80;5.40;;;16.30;99.90;;;;;;5049736;28;20103;-78
2023/05/23 01:20:49;;;;;;;10.40;6.03;;;16.40;99.90;;;;;;5039358;28;20077;-78
2023/05/23 01:23:15;;;;;;;7.63;4.63;;;;;;;;;;5030037;28;20029;-78
2023/05/23 01:26:03;;;;;;;9.98;5.40;;;;;;;;;;5030500;28;20032;-78
2023/05/23 01:28:39;;;;;;;9.35;4.57;;;16.50;99.90;;;;;;5031262;28;20029;-78
2023/05/23 01:31:09;;;;;;;8.98;5.28;;;16.60;99.90;;;;;;5030482;28;20045;-77
2023/05/23 01:33:36;;;;;;;8.55;5.10;;;16.60;99.90;;;;;;5030614;28;20029;-78
2023/05/23 01:36:02;;;;;;;9.48;5.28;;;;;;;;;;5030888;28;20268;-78
2023/05/23 01:38:28;;;;;;;9.82;5.65;;;;;;;;;;5030909;28;20038;-78
2023/05/23 01:40:54;;;;;;;6.70;4.07;;;;;;;;;;5031528;28;20030;-77
2023/05/23 01:43:21;;;;;;;7.47;4.30;;;16.70;99.90;;;;;;5030583;28;20030;-78
2023/05/23 01:45:48;;;;;;;10.45;5.57;;;16.50;99.90;;;;;;5032011;28;20044;-78
2023/05/23 01:48:15;;;;;;;6.57;3.45;;;16.60;99.90;;;;;;5029413;28;20124;-78
2023/05/23 01:50:44;;;;;;;5.47;3.13;;;17.00;99.90;;;;;;5030508;28;20025;-78
2023/05/23 01:53:10;;;;;;;10.10;4.45;;;;;;;;;;5029075;28;20033;-78
2023/05/23 01:55:36;;;;;;;6.63;3.85;;;;;;;;;;5031079;28;20033;-78
2023/05/23 01:58:02;;;;;;;9.40;4.32;;;;;;;;;;5029934;28;20017;-78
2023/05/23 02:00:28;;;;;;;7.57;4.30;;;16.50;99.90;;;;;;5029539;28;20025;-78
2023/05/23 02:02:54;;;;;;;5.65;3.10;;;;;;;;;;5030132;28;20017;-78
2023/05/23 02:05:20;;;;;;;10.40;3.92;;;;;;;;;;5029601;28;20017;-77
2023/05/23 02:07:46;;;;;;;6.60;3.65;;;;;;;;;;5030400;28;20390;-78
2023/05/23 02:10:12;;;;;;;8.50;3.85;;;;;;;;;;5029731;28;20024;-78
2023/05/23 02:12:38;;;;;;;9.35;4.55;;;;;;;;;;5041189;28;20056;-78
2023/05/23 02:15:04;;;;;;;7.88;3.97;;;16.40;99.90;;;;;;5030186;28;20473;-77
2023/05/23 02:17:30;;;;;;;7.93;3.60;;;;;;;;;;5030997;28;20117;-77
2023/05/23 02:19:56;;;;;;;8.88;3.30;;;;;;;;;;5048485;28;20116;-77
2023/05/23 02:22:25;;;;;;;9.32;3.95;;;16.50;99.90;;;;;;5037495;28;20117;-78
2023/05/23 02:24:51;;;;;;;6.88;4.78;;;;;;;;;;5041562;28;20479;-78
2023/05/23 02:27:18;;;;;;;6.20;3.25;;;16.60;99.90;;;;;;5028818;28;20071;-78
2023/05/23 02:29:44;;;;;;;5.50;3.50;;;;;;;;;;5034716;28;20029;-78
2023/05/23 02:32:10;;;;;;;6.00;3.63;;;;;;;;;;5049009;28;20045;-78
2023/05/23 02:34:37;;;;;;;5.32;4.28;;;;;;;;;;5042176;28;20047;-78
2023/05/23 02:37:03;;;;;;;10.43;4.13;;;;;;;;;;5028862;28;20029;-78
2023/05/23 02:39:29;;;;;;;7.18;3.60;;;;;;;;;;5028058;28;20036;-78
2023/05/23 02:41:55;;;;;;;6.97;4.13;;;;;;;;;;5029895;28;20060;-78
2023/05/23 02:44:21;;;;;;;9.70;4.10;;;;;;;;;;5029321;28;20026;-78
2023/05/23 02:46:47;;;;;;;8.60;4.30;;;;;;;;;;5029680;28;20116;-78
2023/05/23 02:49:13;;;;;;;7.32;3.78;;;;;;;;;;5029695;28;20104;-78
2023/05/23 02:51:39;;;;;;;7.28;3.78;;;;;;;;;;5029791;28;20025;-78
2023/05/23 02:54:05;;;;;;;11.73;4.03;;;;;;;;;;5028538;28;20038;-78
2023/05/23 02:56:31;;;;;;;8.45;4.05;;;;;;;;;;5029097;28;20026;-78
2023/05/23 02:58:56;;;;;;;9.80;4.82;;;15.90;99.90;;;;;;5034434;28;20031;-78
2023/05/23 03:01:22;;;;;;;6.32;3.72;;;;;;;;;;5030962;28;20032;-77
2023/05/23 03:03:48;;;;;;;6.18;3.50;;;;;;;;;;5023770;28;20635;-78
2023/05/23 03:06:15;;;;;;;6.03;3.47;;;;;;;;;;5048357;28;20029;-78
2023/05/23 03:08:41;;;;;;;5.10;3.70;;;;;;;;;;5029047;28;20397;-78
2023/05/23 03:11:07;;;;;;;9.90;4.50;;;;;;;;;;5035817;28;20551;-78
2023/05/23 03:13:34;;;;;;;6.78;3.92;;;16.40;99.90;;;;;;5028111;28;20502;-78
2023/05/23 03:16:00;;;;;;;7.80;4.40;;;;;;;;;;5028936;28;20061;-77
2023/05/23 03:18:26;;;;;;;8.52;4.20;;;;;;;;;;5028605;28;20056;-78
2023/05/23 03:20:52;;;;;;;7.35;3.78;;;;;;;;;;5028637;28;20510;-78
2023/05/23 03:23:18;;;;;;;8.90;3.88;;;;;;;;;;5033693;28;20020;-78
2023/05/23 03:25:44;;;;;;;5.63;3.40;;;;;;;;;;5048149;28;20108;-78
2023/05/23 03:28:11;;;;;;;7.45;4.32;;;;;;;;;;5043203;28;20136;-78
2023/05/23 03:30:38;;;;;;;8.30;4.00;;;;;;;;;;5040668;28;20045;-78
2023/05/23 03:33:04;;;;;;;6.35;3.63;;;;;;;;;;5015286;28;20068;-78
2023/05/23 03:35:30;;;;;;;5.43;3.83;;;;;;;;;;5034904;28;20025;-78
2023/05/23 03:37:56;;;;;;;9.05;3.70;;;;;;;;;;5028494;28;20029;-78
2023/05/23 03:40:22;;;;;;;6.13;3.63;;;;;;;;;;5010657;28;20033;-78
2023/05/23 03:43:00;;;;;;;7.45;3.60;;;16.50;99.90;;;;;;5034798;28;20025;-78
2023/05/23 03:45:26;;;;;;;7.05;3.58;;;;;;;;;;5049452;28;20029;-78
2023/05/23 03:47:51;;;;;;;7.85;4.03;;;16.80;99.90;;;;;;5052026;28;20094;-78
2023/05/23 03:50:17;;;;;;;10.70;4.32;;;16.30;99.90;;;;;;5050965;28;20029;-78
2023/05/23 03:52:43;;;;;;;4.82;3.40;;;;;;;;;;5051205;28;20051;-78
2023/05/23 03:55:10;;;;;;;5.35;3.63;;;;;;;;;;5049904;28;20131;-78
2023/05/23 03:57:36;;;;;;;6.63;4.82;;;;;;;;;;5051264;28;20036;-78
2023/05/23 04:00:05;;;;;;;9.98;4.45;;;16.50;99.90;;;;;;5050289;28;20033;-78
2023/05/23 04:02:31;;;;;;;7.57;4.45;;;;;;;;;;5031819;28;20017;-79
2023/05/23 04:04:57;;;;;;;7.63;4.10;;;;;;;;;;5045419;28;20541;-79
2023/05/23 04:07:25;;;;;;;6.18;3.42;;;;;;;;;;5051116;28;20013;-78
2023/05/23 04:09:51;;;;;;;;;;;16.60;99.90;;;;;;5051522;28;20111;-78
2023/05/23 04:12:17;;;;;;;10.68;3.35;;;;;;;;;;5051164;28;20333;-78
2023/05/23 04:14:43;;;;;;;4.55;2.55;;;;;;;;;;5050734;28;20413;-78
2023/05/23 04:17:09;;;;;;;7.10;4.03;;;;;;;;;;5051385;28;20492;-77
2023/05/23 04:19:35;;;;;;;7.55;3.53;;;;;;;;;;5050697;28;20033;-78
2023/05/23 04:22:00;;;;;;;5.60;3.50;;;16.50;99.90;;;;;;5050692;28;20503;-78
2023/05/23 04:24:26;;;;;;;4.63;3.33;;;;;;;;;;5049606;28;20108;-78
2023/05/23 04:26:55;;;;;;;6.13;3.83;;;;;;;;;;5043421;28;20037;-78
2023/05/23 04:29:20;;;;;;;6.22;3.80;;;;;;;;;;5028213;28;20025;-78
2023/05/23 04:31:47;;;;;;;8.73;4.40;;;;;;;;;;5031521;28;20046;-78
2023/05/23 04:34:13;;;;;;;5.63;3.60;;;;;;;;;;5046330;28;20033;-78
2023/05/23 04:36:39;;;;;;;8.02;4.18;;;;;;;;;;5051304;28;20017;-78
2023/05/23 04:39:05;;;;;;;7.50;4.00;;;;;;;;;;5050537;28;20468;-78
2023/05/23 04:41:31;;;;;;;6.28;3.63;;;;;;;;;;5041127;28;20053;-78
2023/05/23 04:43:57;;;;;;;6.07;3.75;;;;;;;;;;5050425;28;20028;-78
2023/05/23 04:46:25;;;;;;;7.35;3.92;;;;;;;;;;5051033;28;20039;-78
2023/05/23 04:48:51;;;;;;;4.95;3.40;;;;;;;;;;5050322;28;20394;-78
2023/05/23 04:51:18;;;;;;;8.10;3.63;;;;;;;;;;5051022;28;20040;-78
2023/05/23 04:53:44;;;;;;;8.88;4.07;;;;;;;;;;5032615;28;20036;-78
2023/05/23 04:56:10;;;;;;;8.15;4.20;;;;;;;;;;5041031;28;20026;-77
2023/05/23 04:58:36;;;;;;;7.03;4.22;;;;;;;;;;5030677;28;20028;-78
2023/05/23 05:01:02;;;;;;;8.50;3.88;;;;;;;;;;5030460;28;20025;-78
2023/05/23 05:03:28;;;;;;;8.25;4.82;;;;;;;;;;5030643;28;20036;-78
2023/05/23 05:05:54;;;;;;;9.73;4.50;;;;;;;;;;5030466;28;20021;-78
2023/05/23 05:08:20;;;;;;;7.13;4.43;;;;;;;;;;5030692;28;20025;-78
2023/05/23 05:10:46;;;;;;;8.80;4.43;;;;;;;;;;5012764;28;20032;-78
2023/05/23 05:13:12;;;;;;;8.95;4.68;;;;;;;;;;5031157;28;20021;-78
2023/05/23 05:15:38;;;;;;;6.22;3.92;;;;;;;;;;5030861;28;20033;-78
2023/05/23 05:18:04;;;;;;;7.57;3.58;;;;;;;;;;5031494;28;20025;-78
2023/05/23 05:20:30;;;;;;;5.70;3.72;;;;;;;;;;5013107;28;20108;-78
2023/05/23 05:22:57;;;;;;;7.35;4.07;;;;;;;;;;5030876;28;20025;-78
2023/05/23 05:25:23;;;;;;;7.57;3.83;;;;;;;;;;5030017;28;20022;-78
2023/05/23 05:27:49;;;;;;;8.30;4.60;;;;;;;;;;5044608;28;20041;-80
2023/05/23 05:30:15;;;;;;;6.80;3.40;;;17.20;99.90;;;;;;5023830;28;20045;-78
2023/05/23 05:32:44;;;;;;;9.32;4.57;;;;;;;;;;5026741;28;20029;-78
2023/05/23 05:35:12;;;;;;;9.73;5.22;;;;;;;;;;5038927;28;20426;-79
2023/05/23 05:37:39;;;;;;;7.07;3.58;;;;;;;;;;5040077;28;20025;-78
2023/05/23 05:40:07;;;;;;;8.63;4.45;;;17.10;99.90;;;;;;5028484;28;20121;-78
2023/05/23 05:42:33;;;;;;;7.75;3.60;;;;;;;;;;5043560;28;20029;-78
2023/05/23 05:44:59;;;;;;;11.65;4.30;;;;;;;;;;5029623;28;20095;-78
2023/05/23 05:47:25;;;;;;;8.63;4.40;;;;;;;;;;5018945;28;20069;-78
2023/05/23 05:49:51;;;;;;;6.88;4.30;;;;;;;;;;5035832;28;20051;-77
2023/05/23 05:52:17;;;;;;;8.48;4.32;;;;;;;;;;5035748;28;20078;-80
2023/05/23 05:54:43;;;;;;;5.80;3.72;;;;;;;;;;5032351;28;20037;-77
2023/05/23 05:57:09;;;;;;;8.82;5.25;;;;;;;;;;5030693;28;20022;-78
2023/05/23 05:59:35;;;;;;;12.48;5.63;;;;;;;;;;5035607;28;20553;-77
2023/05/23 06:02:01;;;;;;;8.88;5.00;;;;;;;;;;5028344;28;20017;-78
2023/05/23 06:04:27;;;;;;;9.63;5.38;;;;;;;;;;5033725;28;20480;-77
2023/05/23 06:06:53;;;;;;;12.57;6.13;;;17.50;99.90;;;;;;5038323;28;20025;-77
2023/05/23 06:09:18;;;;;;;16.90;8.85;;;17.60;99.90;;;;;;5039311;28;20025;-75
2023/05/23 06:11:44;;;;;;;15.80;8.13;;;17.60;99.90;;;;;;5026691;28;20030;-77
2023/05/23 06:14:10;;;;;;;17.60;8.45;;;;;;;;;;5040468;28;20425;-77
2023/05/23 06:16:36;;;;;;;16.27;8.75;;;;;;;;;;5039221;28;20149;-78
2023/05/23 06:19:02;;;;;;;21.25;9.70;;;;;;;;;;5031765;28;21049;-79
2023/05/23 06:21:28;;;;;;;16.13;9.93;;;;;;;;;;5029055;28;20171;-79
2023/05/23 06:23:54;;;;;;;23.50;10.45;;;;;;;;;;5029785;28;20485;-77
2023/05/23 06:26:20;;;;;;;27.63;10.32;;;;;;;;;;5033798;28;20032;-77
2023/05/23 06:28:46;;;;;;;22.13;10.32;;;;;;;;;;5016487;28;20041;-79
2023/05/23 06:31:20;;;;;;;14.57;8.90;;;17.80;99.90;;;;;;5141720;27;20430;-75
2023/05/23 06:33:46;;;;;;;21.48;10.65;;;;;;;;;;5140592;27;20027;-74
2023/05/23 06:36:12;;;;;;;18.88;8.15;;;;;;;;;;5139500;27;20051;-75
2023/05/23 06:38:38;;;;;;;24.85;9.38;;;;;;;;;;5139491;27;20420;-75
2023/05/23 06:41:05;;;;;;;20.55;9.05;;;;;;;;;;5135987;27;20066;-75
2023/05/23 06:43:31;;;;;;;27.27;9.80;;;17.50;99.90;;;;;;5141291;27;20560;-75
2023/05/23 06:45:57;;;;;;;19.55;10.45;;;;;;;;;;5127014;27;20023;-75
2023/05/23 06:48:23;;;;;;;19.73;10.15;;;;;;;;;;5129575;27;20027;-77
2023/05/23 06:50:49;;;;;;;21.67;9.25;;;17.80;99.90;;;;;;5125279;27;20118;-76
2023/05/23 06:53:15;;;;;;;15.27;8.70;;;;;;;;;;5125579;27;20492;-75
2023/05/23 06:55:41;;;;;;;23.05;10.25;;;;;;;;;;5127784;27;20077;-76
2023/05/23 06:58:07;;;;;;;24.90;10.13;;;17.60;99.90;;;;;;5139364;27;20027;-76
2023/05/23 07:00:33;;;;;;;22.65;9.52;;;;;;;;;;5125194;27;20035;-76
2023/05/23 07:03:02;;;;;;;29.15;11.55;;;;;;;;;;5125930;27;20488;-77
2023/05/23 07:05:28;;;;;;;22.13;10.65;;;;;;;;;;5126313;27;20031;-76
2023/05/23 07:07:54;;;;;;;18.98;10.10;;;;;;;;;;5127823;27;20023;-77
2023/05/23 07:10:20;;;;;;;22.75;10.35;;;;;;;;;;5127091;27;20560;-76
2023/05/23 07:12:46;;;;;;;28.83;10.90;;;18.20;99.90;;;;;;5116831;27;20492;-75
2023/05/23 07:15:13;;;;;;;18.48;9.05;;;17.80;99.90;;;;;;5127663;27;20039;-78
2023/05/23 07:17:39;;;;;;;22.88;9.45;;;;;;;;;;5107265;27;20055;-76
2023/05/23 07:20:06;;;;;;;20.42;9.73;;;;;;;;;;5102693;28;20028;-72
2023/05/23 07:22:31;;;;;;;19.73;8.63;;;17.90;99.90;;;;;;5103340;28;20155;-76
2023/05/23 07:24:57;;;;;;;22.67;10.23;;;;;;;;;;5093257;28;20564;-76
2023/05/23 07:27:23;;;;;;;24.92;10.63;;;;;;;;;;5101624;28;20404;-76
2023/05/23 07:29:49;;;;;;;20.15;10.18;;;;;;;;;;5088070;28;20044;-78
2023/05/23 07:32:15;;;;;;;26.05;10.93;;;;;;;;;;5090831;28;20027;-76
2023/05/23 07:34:41;;;;;;;20.50;9.15;;;;;;;;;;5091156;28;20024;-78
2023/05/23 07:37:07;;;;;;;27.00;10.20;;;;;;;;;;5097773;28;20020;-77
2023/05/23 07:39:33;;;;;;;22.40;9.90;;;17.90;99.90;;;;;;5090554;28;20048;-78
2023/05/23 07:41:59;;;;;;;19.80;9.57;;;;;;;;;;5080979;28;20111;-78
2023/05/23 07:44:25;;;;;;;24.25;11.00;;;;;;;;;;5069691;28;20489;-76
2023/05/23 07:46:51;;;;;;;22.70;11.48;;;18.00;99.90;;;;;;5070674;28;20028;-78
2023/05/23 07:49:17;;;;;;;24.52;9.82;;;;;;;;;;5077284;28;20519;-78
2023/05/23 07:51:42;;;;;;;25.80;10.73;;;;;;;;;;5063110;28;20036;-78
2023/05/23 07:54:08;;;;;;;28.48;9.27;;;;;;;;;;5077072;28;20068;-77
2023/05/23 07:56:37;;;;;;;22.88;9.60;;;;;;;;;;5070190;28;20032;-77
2023/05/23 07:59:03;;;;;;;18.90;9.45;;;;;;;;;;5070657;28;20016;-79
2023/05/23 08:01:29;;;;;;;26.23;11.18;;;;;;;;;;5076763;28;20024;-77
2023/05/23 08:03:55;;;;;;;25.55;10.30;;;;;;;;;;5069682;28;20019;-76
2023/05/23 08:06:21;;;;;;;22.23;10.25;;;;;;;;;;5069666;28;20060;-81
2023/05/23 08:08:47;;;;;;;28.15;11.18;;;;;;;;;;5077306;28;20052;-79
2023/05/23 08:11:13;;;;;;;21.42;10.18;;;;;;;;;;5069398;28;20051;-78
2023/05/23 08:13:39;;;;;;;21.83;10.43;;;;;;;;;;5069413;28;20024;-78
2023/05/23 08:16:05;;;;;;;23.35;10.27;;;;;;;;;;5064114;28;20337;-80
2023/05/23 08:18:31;;;;;;;28.75;10.05;;;;;;;;;;5073654;28;20039;-79
2023/05/23 08:20:57;;;;;;;21.65;10.25;;;;;;;;;;5075727;28;20036;-78
2023/05/23 08:23:24;;;;;;;21.42;10.07;;;;;;;;;;5075867;28;20024;-79
2023/05/23 08:25:50;;;;;;;28.02;10.60;;;;;;;;;;5076832;28;20428;-78
2023/05/23 08:28:16;;;;;;;21.33;9.15;;;;;;;;;;5069237;28;20036;-78
2023/05/23 08:30:42;;;;;;;20.35;10.30;;;;;;;;;;5068954;28;20052;-78
2023/05/23 08:33:08;;;;;;;24.13;11.38;;;;;;;;;;5069005;28;20527;-78
2023/05/23 08:35:35;;;;;;;23.25;9.60;;;;;;;;;;5069178;28;20028;-78
2023/05/23 08:38:04;;;;;;;21.67;9.63;;;22.70;94.30;;;;;;5069304;28;20029;-74
2023/05/23 08:40:31;;;;;;;21.25;10.68;;;22.80;93.80;;;;;;5070205;28;20121;-74
2023/05/23 08:42:58;;;;;;;21.98;10.27;;;;;;;;;;5074853;28;20024;-74
2023/05/23 08:45:23;;;;;;;27.65;9.77;;;22.30;97.20;;;;;;5079873;28;20028;-74
2023/05/23 08:47:51;;;;;;;19.92;8.95;;;22.20;94.50;;;;;;5080942;28;20565;-74
2023/05/23 08:50:17;;;;;;;16.20;8.68;;;;;;;;;;5086155;28;20127;-74
2023/05/23 08:52:49;;;;;;;24.92;10.02;;;21.60;95.80;;;;;;5079783;28;20043;-74
2023/05/23 08:55:17;;;;;;;27.05;9.57;;;21.20;96.80;;;;;;5080444;28;20024;-73
2023/05/23 08:57:44;;;;;;;20.80;9.30;;;;;;;;;;5067651;28;20060;-75
2023/05/23 09:00:13;;;;;;;17.15;9.13;;;20.70;97.80;;;;;;5072915;28;20111;-74
2023/05/23 09:02:42;;;;;;;24.88;9.38;;;20.70;99.90;;;;;;5068432;28;20405;-74
2023/05/23 09:05:08;;;;;;;21.00;8.75;;;;;;;;;;5078278;28;20074;-75
2023/05/23 09:07:35;;;;;;;18.98;10.30;;;20.90;97.70;;;;;;5080390;28;20081;-74
2023/05/23 09:10:03;;;;;;;27.58;10.35;;;20.80;99.90;;;;;;5075520;28;20033;-73
2023/05/23 09:12:29;;;;;;;18.75;9.00;;;;;;;;;;5075354;28;20107;-74
2023/05/23 09:14:56;;;;;;;19.45;9.90;;;;;;;;;;5073396;28;20096;-74
2023/05/23 09:17:22;;;;;;;26.05;9.73;;;;;;;;;;5085365;28;20089;-74
2023/05/23 09:19:48;;;;;;;16.05;9.07;;;;;;;;;;5077317;28;20032;-74
2023/05/23 09:22:14;;;;;;;18.98;8.40;;;;;;;;;;5079127;28;20028;-74
2023/05/23 09:24:41;;;;;;;18.83;9.68;;;;;;;;;;5077553;28;20081;-73
2023/05/23 09:27:07;;;;;;;20.23;10.27;;;;;;;;;;5074211;28;20077;-74
2023/05/23 09:29:38;;;;;;;17.30;9.48;;;23.70;79.60;;;;;;5054977;28;20580;-74
2023/05/23 09:32:17;;;;;;;18.17;9.15;;;22.90;90.40;;;;;;5069914;28;20048;-74
2023/05/23 09:34:56;;;;;;;15.52;9.23;;;22.60;89.60;;;;;;5073119;28;20032;-74
2023/05/23 09:37:23;;;;;;;24.88;9.60;;;;;;;;;;5072000;28;20020;-73
2023/05/23 09:39:49;;;;;;;;;;;22.80;85.80;;;;;;5060161;28;20099;-74
2023/05/23 09:42:22;;;;;;;22.47;9.00;;;23.40;84.70;;;;;;5072575;28;19923;-74
2023/05/23 09:44:48;;;;;;;22.38;10.02;;;;;;;;;;5072679;28;20107;-74
2023/05/23 09:47:17;;;;;;;18.92;9.48;;;29.70;66.70;;;;;;5080322;28;20039;-74
2023/05/23 09:49:43;;;;;;;16.33;8.70;;;30.60;57.20;;;;;;5080941;28;20028;-78
2023/05/23 09:52:10;;;;;;;20.40;9.70;;;29.50;68.50;;;;;;5070403;28;20028;-78
2023/05/23 09:54:35;;;;;;;14.38;7.75;;;28.30;71.70;;;;;;5067568;28;20028;-77
2023/05/23 09:57:03;;;;;;;17.23;9.63;;;;;;;;;;5076248;28;20492;-77
2023/05/23 09:59:30;;;;;;;;;;;27.20;59.60;;;;;;5076417;28;20032;-77
2023/05/23 10:01:59;;;;;;;17.40;8.60;;;27.30;61.50;;;;;;5068096;28;19915;-79
2023/05/23 10:04:25;;;;;;;19.33;9.25;;;;;;;;;;5069959;28;20073;-79
2023/05/23 10:06:59;;;;;;;17.87;9.90;;;34.40;51.30;;;;;;5076349;28;20055;-79
2023/05/23 10:09:29;;;;;;;16.10;8.95;;;39.60;45.00;;;;;;5067654;28;20040;-79
2023/05/23 10:12:14;;;;;;;16.02;7.55;;;43.60;42.00;;;;;;5073643;28;20029;-79
2023/05/23 10:14:44;;;;;;;12.13;7.07;;;44.80;42.00;;;;;;5067464;28;20413;-78
2023/05/23 10:17:17;;;;;;;14.75;8.18;;;43.50;41.10;;;;;;5066673;28;20060;-75
2023/05/23 10:19:55;;;;;;;13.98;7.32;;;41.50;37.70;;;;;;5065856;28;20027;-76
2023/05/23 10:22:23;;;;;;;15.25;8.30;;;38.80;39.20;;;;;;5067130;28;20103;-76
2023/05/23 10:24:49;;;;;;;13.38;7.80;;;;;;;;;;5076762;28;20032;-76
2023/05/23 10:27:15;;;;;;;15.65;9.40;;;;;;;;;;5074909;28;20107;-76
2023/05/23 10:29:41;;;;;;;18.20;8.40;;;;;;;;;;5066306;28;20158;-76
2023/05/23 10:32:07;;;;;;;14.23;7.80;;;;;;;;;;5067539;28;20032;-79
2023/05/23 10:34:54;;;;;;;15.25;8.50;;;31.80;55.50;;;;;;5066716;28;20473;-75
2023/05/23 10:37:53;;;;;;;17.05;9.35;;;32.10;46.80;;;;;;5072153;28;20036;-76
2023/05/23 10:40:41;;;;;;;14.98;8.75;;;37.50;49.20;;;;;;5024158;28;20026;-76
2023/05/23 10:43:19;;;;;;;18.63;7.82;;;39.40;40.40;;;;;;5024313;28;20033;-76
2023/05/23 10:45:49;;;;;;;12.18;7.57;;;;;;;;;;5023957;28;20087;-76
2023/05/23 10:48:40;;;;;;;15.50;8.95;;;41.60;34.50;;;;;;5023421;28;20278;-77
2023/05/23 10:51:10;;;;;;;15.48;8.30;;;38.80;45.50;;;;;;5024469;28;20124;-76
2023/05/23 10:53:41;;;;;;;10.10;6.90;;;36.50;38.80;;;;;;5035934;28;20031;-76
2023/05/23 10:56:08;;;;;;;16.38;8.82;;;35.20;40.30;;;;;;5024847;28;20553;-75
2023/05/23 10:58:37;;;;;;;13.60;7.97;;;34.00;47.90;;;;;;5024550;28;20088;-76
2023/05/23 11:01:12;;;;;;;16.95;8.38;;;35.30;50.90;;;;;;5027944;28;20678;-75
2023/05/23 11:03:47;;;;;;;13.70;8.48;;;34.40;41.00;;;;;;5024049;28;20545;-76
2023/05/23 11:06:27;;;;;;;12.43;7.45;;;35.00;44.90;;;;;;5024405;28;20048;-76
2023/05/23 11:09:03;;;;;;;15.88;8.63;;;37.60;38.20;;;;;;5024489;28;20025;-76
2023/05/23 11:11:47;;;;;;;;;;;38.50;37.30;;;;;;5024130;28;20049;-76
2023/05/23 11:14:13;;;;;;;11.45;7.25;;;39.50;36.10;;;;;;5024611;28;19909;-76
2023/05/23 11:16:45;;;;;;;14.95;7.60;;;40.20;36.30;;;;;;5029411;28;20078;-76
2023/05/23 11:19:24;;;;;;;10.98;6.88;;;38.50;35.00;;;;;;5075840;28;20068;-76
2023/05/23 11:21:53;;;;;;;11.85;7.43;;;37.00;39.40;;;;;;5092291;28;20036;-76
2023/05/23 11:24:19;;;;;;;14.43;6.80;;;37.50;36.30;;;;;;5065576;28;20039;-75
2023/05/23 11:26:59;;;;;;;13.25;6.80;;;36.40;47.20;;;;;;5071369;28;20023;-76
2023/05/23 11:29:26;;;;;;;9.15;5.90;;;36.40;38.10;;;;;;5069844;28;20590;-76
2023/05/23 11:31:51;;;;;;;9.38;6.00;;;37.80;45.90;;;;;;5070270;28;20029;-76
2023/05/23 11:34:17;;;;;;;10.83;6.73;;;36.70;39.50;;;;;;5070394;28;20031;-75
2023/05/23 11:36:43;;;;;;;10.90;6.80;;;;;;;;;;5070585;28;20028;-75
2023/05/23 11:39:09;;;;;;;11.95;7.18;;;34.20;50.60;;;;;;5071069;28;20031;-75
2023/05/23 11:41:35;;;;;;;10.97;5.97;;;;;;;;;;5070758;28;20029;-76
2023/05/23 11:44:01;;;;;;;11.93;6.68;;;;;;;;;;5070551;28;20023;-78
2023/05/23 11:46:27;;;;;;;12.30;7.68;;;;;;;;;;5069955;28;20036;-78
2023/05/23 11:48:56;;;;;;;12.50;7.28;;;;;;;;;;5072696;28;20460;-74
2023/05/23 11:51:22;;;;;;;11.80;7.03;;;;;;;;;;5069727;28;20489;-74
2023/05/23 11:53:48;;;;;;;11.40;6.05;;;;;;;;;;5071191;28;20029;-74
2023/05/23 11:56:15;;;;;;;13.95;7.18;;;33.40;45.30;;;;;;5065533;28;20490;-74
2023/05/23 11:58:41;;;;;;;10.35;6.47;;;;;;;;;;5069137;28;20069;-74
2023/05/23 12:01:08;;;;;;;13.32;6.97;;;32.40;47.70;;;;;;5070385;28;20120;-75
2023/05/23 12:03:34;;;;;;;;;;;32.20;42.00;;;;;;5068810;28;20032;-75
2023/05/23 12:06:03;;;;;;;18.50;7.93;;;;;;;;;;5069603;28;19908;-75
2023/05/23 12:08:29;;;;;;;12.32;7.13;;;30.40;54.40;;;;;;5070090;28;20059;-75
2023/05/23 12:10:59;;;;;;;13.27;7.27;;;29.80;45.30;;;;;;5073826;28;20063;-75
2023/05/23 12:13:27;;;;;;;12.65;7.60;;;29.70;53.70;;;;;;5069451;28;20017;-74
2023/05/23 12:15:58;;;;;;;10.18;6.50;;;29.50;50.10;;;;;;5059532;28;20409;-74
2023/05/23 12:18:27;;;;;;;13.43;7.00;;;29.20;46.70;;;;;;5078836;28;20048;-75
2023/05/23 12:20:53;;;;;;;10.95;6.38;;;29.70;56.00;;;;;;5070138;28;20064;-74
2023/05/23 12:23:23;;;;;;;11.20;7.45;;;29.90;58.10;;;;;;5075172;28;20526;-74
2023/05/23 12:25:52;;;;;;;10.57;7.03;;;30.00;46.20;;;;;;5087443;28;20028;-74
2023/05/23 12:28:34;;;;;;;12.85;6.22;;;29.60;46.60;;;;;;5068154;28;20397;-75
2023/05/23 12:31:11;;;;;;;14.50;7.35;;;28.50;46.90;;;;;;5070788;28;20086;-75
2023/05/23 12:33:44;;;;;;;11.48;6.65;;;27.80;48.50;;;;;;5079131;28;20061;-75
2023/05/23 12:36:10;;;;;;;13.80;7.60;;;27.80;62.00;;;;;;5077592;28;20439;-75
2023/05/23 12:38:37;;;;;;;13.02;6.43;;;28.40;48.90;;;;;;5075469;28;20031;-75
2023/05/23 12:41:09;;;;;;;;;;;28.70;49.40;;;;;;5077519;28;20033;-75
2023/05/23 12:43:38;;;;;;;12.68;7.32;;;28.80;60.20;;;;;;5087328;28;20368;-75
2023/05/23 12:46:05;;;;;;;16.98;7.68;;;28.40;55.10;;;;;;5067645;28;20028;-74
2023/05/23 12:48:31;;;;;;;13.50;7.53;;;28.30;53.30;;;;;;5077571;28;20039;-75
2023/05/23 12:50:57;;;;;;;14.65;7.80;;;;;;;;;;5072042;28;20040;-77
2023/05/23 12:53:23;;;;;;;14.20;7.03;;;;;;;;;;5078427;28;20058;-77
2023/05/23 12:55:48;;;;;;;19.65;7.50;;;27.80;53.00;;;;;;5068960;28;20036;-77
2023/05/23 12:58:14;;;;;;;15.13;7.97;;;;;;;;;;5068328;28;20413;-77
2023/05/23 13:00:40;;;;;;;12.88;7.30;;;;;;;;;;5068364;28;20082;-76
2023/05/23 13:03:06;;;;;;;13.35;7.15;;;;;;;;;;5068653;28;20024;-76
2023/05/23 13:05:32;;;;;;;10.88;7.07;;;;;;;;;;5069050;28;20386;-76
2023/05/23 13:07:59;;;;;;;12.35;6.57;;;;;;;;;;5074863;28;20024;-77
2023/05/23 13:10:25;;;;;;;12.97;7.57;;;;;;;;;;5068281;28;20044;-76
2023/05/23 13:12:50;;;;;;;12.63;6.88;;;;;;;;;;5073913;28;20027;-76
2023/05/23 13:15:16;;;;;;;15.20;7.68;;;26.10;54.20;;;;;;5074098;28;20052;-77
2023/05/23 13:17:42;;;;;;;12.20;6.43;;;;;;;;;;5077415;28;20404;-76
2023/05/23 13:20:10;;;;;;;11.43;6.80;;;;;;;;;;5068277;28;20511;-76
2023/05/23 13:22:36;;;;;;;11.55;6.07;;;;;;;;;;5073077;28;20032;-76
2023/05/23 13:25:02;;;;;;;10.90;6.40;;;;;;;;;;5074106;28;20024;-76
2023/05/23 13:27:28;;;;;;;10.60;5.55;;;;;;;;;;5068356;28;20029;-75
2023/05/23 13:29:54;;;;;;;15.00;6.13;;;;;;;;;;5067909;28;20044;-76
2023/05/23 13:32:20;;;;;;;13.45;7.45;;;;;;;;;;5068024;28;20086;-75
2023/05/23 13:34:46;;;;;;;16.02;7.57;;;;;;;;;;5074365;28;20016;-75
2023/05/23 13:37:12;;;;;;;13.52;6.85;;;;;;;;;;5074576;28;20131;-77
2023/05/23 13:39:38;;;;;;;13.60;6.47;;;;;;;;;;5060562;28;20039;-76
2023/05/23 13:42:04;;;;;;;15.65;7.25;;;;;;;;;;5087981;28;20031;-75
2023/05/23 13:44:30;;;;;;;22.38;7.65;;;;;;;;;;5087339;28;20031;-77
2023/05/23 13:46:57;;;;;;;27.23;8.65;;;22.40;62.70;;;;;;5076884;28;20389;-77
2023/05/23 13:49:23;;;;;;;22.60;7.93;;;;;;;;;;5073902;28;20036;-79
2023/05/23 13:51:49;;;;;;;21.15;8.75;;;;;;;;;;5073748;28;20112;-77
2023/05/23 13:54:15;;;;;;;12.57;6.15;;;;;;;;;;5067869;28;20032;-77